Trans Exeter — 9HA2572 — position and weather

sailwx.info

Track history (hours):
 
Tides and Currents Weather Stations Pressure Air Temp Water Temp Dewpoint Dewpoint Depression Visibility Wind Speed Wind Dir Waves Ship Positions

Trans Exeter

Last reported at 2017-Nov-19 08:11 UTC. Time now 2017-Nov-20 19:25 UTC.
Position N 43°36' E 008°22'.

Length 118 m; draft 5.5 m.

Type: Ship (hazmat cat C). MMSI: 248908000.

Date/timePositionNaut miles runAvg speedWind from/ knotsBaromVisibWave heightAir tempDewpointWater temp
2017-Nov-19 08:11N 43°36' E 008°22'415.4
2017-Nov-19 07:56N 43°38' E 008°26'1115.2
2017-Nov-19 07:13N 43°47' E 008°35'315.0
2017-Nov-19 07:00N 43°50' E 008°37'714.9
2017-Nov-19 06:30N 43°56' E 008°43'714.6
2017-Nov-19 06:00N 44°02' E 008°49'714.9
2017-Nov-19 05:30N 44°09' E 008°53'714.9
2017-Nov-19 05:00N 44°15' E 008°58'713.5
2017-Nov-19 04:30N 44°22' E 008°57'3 5.9
2017-Nov-19 04:00N 44°24' E 008°54'0 0.0
2017-Nov-19 03:30N 44°24' E 008°54'0 0.0
2017-Nov-19 03:00N 44°24' E 008°54'0 0.0
2017-Nov-19 02:30N 44°24' E 008°54'0 0.0
2017-Nov-19 01:57N 44°24' E 008°54'0 0.0
2017-Nov-19 01:30N 44°24' E 008°54'0 0.0
2017-Nov-19 00:54N 44°24' E 008°54'0 0.0
2017-Nov-19 00:27N 44°24' E 008°54'0 0.0
2017-Nov-18 23:57N 44°24' E 008°54'0 0.0
2017-Nov-18 23:27N 44°24' E 008°54'0 0.0
2017-Nov-18 23:00N 44°24' E 008°54'0 0.0
2017-Nov-18 22:27N 44°24' E 008°54'0 0.0
2017-Nov-18 22:00N 44°24' E 008°54'0 0.0
2017-Nov-18 21:27N 44°24' E 008°54'0 0.0
2017-Nov-18 21:00N 44°24' E 008°54'0 0.0
2017-Nov-18 20:30N 44°24' E 008°54'0 0.0
2017-Nov-18 20:00N 44°24' E 008°54'0 0.0
2017-Nov-18 19:30N 44°24' E 008°54'0 0.0
2017-Nov-18 19:00N 44°24' E 008°54'0 0.0
2017-Nov-18 18:30N 44°24' E 008°54'0 0.0
2017-Nov-18 18:00N 44°24' E 008°54'0 0.0
2017-Nov-18 17:30N 44°24' E 008°54'0 0.0
2017-Nov-18 17:00N 44°24' E 008°54'0 0.0
2017-Nov-18 16:30N 44°24' E 008°54'0 0.0
2017-Nov-18 16:00N 44°24' E 008°54'0 0.0
2017-Nov-18 15:30N 44°24' E 008°54'0 0.0
2017-Nov-18 15:00N 44°24' E 008°54'0 0.0
2017-Nov-18 14:30N 44°24' E 008°54'0 0.0
2017-Nov-18 13:59N 44°24' E 008°54'0 0.0
2017-Nov-18 13:29N 44°24' E 008°54'0 0.0
2017-Nov-18 12:59N 44°24' E 008°54'0 0.0
2017-Nov-18 12:29N 44°24' E 008°54'0 0.0
2017-Nov-18 11:59N 44°24' E 008°54'0 0.0
2017-Nov-18 11:29N 44°24' E 008°54'0 0.0
2017-Nov-18 10:59N 44°24' E 008°54'0 0.0
2017-Nov-18 10:29N 44°24' E 008°54'0 0.0
2017-Nov-18 09:59N 44°24' E 008°54'0 0.0
2017-Nov-18 09:20N 44°24' E 008°54'0 0.0
2017-Nov-18 09:00N 44°24' E 008°54'2 3.3
2017-Nov-18 08:30N 44°24' E 008°56'1 2.6
2017-Nov-18 08:00N 44°22' E 008°56'0 0.3
2017-Nov-18 07:30N 44°22' E 008°56'1 1.2
2017-Nov-18 07:00N 44°23' E 008°55'2 4.0
2017-Nov-18 06:26N 44°24' E 008°52'0 0.0
2017-Nov-18 05:56N 44°24' E 008°52'0 0.0
2017-Nov-18 05:29N 44°24' E 008°52'0 0.0
2017-Nov-18 04:59N 44°24' E 008°52'0 0.0
2017-Nov-18 04:29N 44°24' E 008°52'0 0.0
2017-Nov-18 03:55N 44°24' E 008°52'0 0.0
2017-Nov-18 03:25N 44°24' E 008°52'0 0.0
2017-Nov-18 02:58N 44°24' E 008°52'0 0.0
2017-Nov-18 02:28N 44°24' E 008°52'0 0.0
2017-Nov-18 01:58N 44°24' E 008°52'0 0.1
2017-Nov-18 01:28N 44°24' E 008°52'0 0.0
2017-Nov-18 00:58N 44°24' E 008°52'0 0.0
2017-Nov-18 00:28N 44°24' E 008°52'0 0.0
2017-Nov-17 23:58N 44°24' E 008°52'0 0.0
2017-Nov-17 23:28N 44°24' E 008°52'0 0.0
2017-Nov-17 22:58N 44°24' E 008°52'0 0.0
2017-Nov-17 22:28N 44°24' E 008°52'0 0.0
2017-Nov-17 21:58N 44°24' E 008°52'0 0.0
2017-Nov-17 21:28N 44°24' E 008°52'0 0.1
2017-Nov-17 21:00N 44°24' E 008°52'3 5.5
2017-Nov-17 20:30N 44°21' E 008°52'612.2
2017-Nov-17 20:00N 44°15' E 008°53'714.1
2017-Nov-17 19:31N 44°08' E 008°52'714.1
2017-Nov-17 19:01N 44°01' E 008°50'714.7
2017-Nov-17 18:31N 43°54' E 008°46'814.8
2017-Nov-17 17:58N 43°46' E 008°43'715.1
2017-Nov-17 17:31N 43°40' E 008°39'815.1
2017-Nov-17 17:01N 43°33' E 008°35'815.4
2017-Nov-17 16:30N 43°29' E 008°26'2415.2
2017-Nov-17 14:56N 43°19' E 007°56'2314.6
2017-Nov-17 13:21N 43°09' E 007°28'514.3
2017-Nov-17 13:00N 43°06' E 007°21'714.5
2017-Nov-17 12:30N 43°03' E 007°13'814.6
2017-Nov-17 11:56N 42°59' E 007°02'244 6.9
2017-Nov-16 00:50N 41°12' E 002°08'612.0
2017-Nov-16 00:19N 41°09' E 002°01'413.7
2017-Nov-16 00:00N 41°07' E 001°55'713.6
2017-Nov-15 23:30N 41°05' E 001°47'713.4
2017-Nov-15 23:00N 41°03' E 001°38'219 5.3
2017-Nov-14 05:54N 37°45' W 000°21'513.5
2017-Nov-14 05:30N 37°40' W 000°24'713.5
2017-Nov-14 05:00N 37°35' W 000°29'813.4
2017-Nov-14 04:24N 37°29' W 000°36'513.3
2017-Nov-14 04:00N 37°26' W 000°42'713.3
2017-Nov-14 03:30N 37°21' W 000°48'713.3
2017-Nov-14 03:00N 37°17' W 000°54'43711.9
2017-Nov-12 14:15N 38°10' W 010°03'414.6
2017-Nov-12 14:00N 38°14' W 010°04'714.7
2017-Nov-12 13:30N 38°21' W 010°06'814.4
2017-Nov-12 12:57N 38°29' W 010°08'614.0
2017-Nov-12 12:30N 38°35' W 010°10'714.1
2017-Nov-12 12:00N 38°42' W 010°12'713.9
2017-Nov-12 11:30N 38°49' W 010°12'714.3
2017-Nov-12 11:00N 38°56' W 010°12'814.5
2017-Nov-12 10:28N 39°04' W 010°12'59913.9
2017-Nov-10 15:28N 48°35' W 006°02'814.4
2017-Nov-10 14:56N 48°42' W 005°56'714.7
2017-Nov-10 14:29N 48°48' W 005°51'714.4
2017-Nov-10 14:00N 48°54' W 005°46'913.9
2017-Nov-10 13:23N 48°58' W 005°35'613.8
2017-Nov-10 12:58N 49°01' W 005°27'11012.7
2017-Nov-10 04:20N 49°57' W 003°01'514.3
2017-Nov-10 04:00N 49°59' W 002°55'814.2
2017-Nov-10 03:27N 50°02' W 002°43'2812.6
2017-Nov-10 01:13N 50°09' W 002°01'311.1
2017-Nov-10 00:56N 50°10' W 001°56'510.9
2017-Nov-10 00:30N 50°12' W 001°49'610.8
2017-Nov-09 23:59N 50°13' W 001°41'510.7
2017-Nov-09 23:30N 50°14' W 001°33'711.0
2017-Nov-09 22:51N 50°17' W 001°22'3713.5
2017-Nov-09 20:06N 50°27' W 000°26'215.3
2017-Nov-09 19:59N 50°27' W 000°24'715.4
2017-Nov-09 19:30N 50°29' W 000°12'815.5
2017-Nov-09 19:00N 50°32' W 000°01'815.3
2017-Nov-09 18:30N 50°34' E 000°11'815.1
2017-Nov-09 18:00N 50°36' E 000°22'714.8
2017-Nov-09 17:30N 50°38' E 000°33'714.3
2017-Nov-09 17:00N 50°42' E 000°43'713.8
2017-Nov-09 16:30N 50°46' E 000°52'713.2
2017-Nov-09 16:00N 50°50' E 001°00'1012.5
2017-Nov-09 15:13N 50°56' E 001°12'312.1
2017-Nov-09 15:00N 50°58' E 001°15'611.7
2017-Nov-09 14:30N 51°02' E 001°23'612.2
2017-Nov-09 14:00N 51°05' E 001°30'713.3
2017-Nov-09 13:30N 51°09' E 001°38'713.9
2017-Nov-09 13:00N 51°14' E 001°47'815.2
2017-Nov-09 12:30N 51°21' E 001°52'815.8
2017-Nov-09 12:00N 51°28' E 001°58'815.8
2017-Nov-09 11:30N 51°34' E 002°07'  
Track history (hours):
 
Tides and Currents Weather Stations Pressure Air Temp Water Temp Dewpoint Dewpoint Depression Visibility Wind Speed Wind Dir Waves Ship Positions

Trans Exeter

Last reported at 2017-Nov-19 08:11 UTC. Time now 2017-Nov-20 19:25 UTC.
Position N 43°36' E 008°22'.

Length 118 m; draft 5.5 m.

Type: Ship (hazmat cat C). MMSI: 248908000.

Date/timePositionNaut miles runAvg speedWind from/ knotsBaromVisibWave heightAir tempDewpointWater temp
2017-Nov-19 08:11N 43°36' E 008°22'415.4
2017-Nov-19 07:56N 43°38' E 008°26'1115.2
2017-Nov-19 07:13N 43°47' E 008°35'315.0
2017-Nov-19 07:00N 43°50' E 008°37'714.9
2017-Nov-19 06:30N 43°56' E 008°43'714.6
2017-Nov-19 06:00N 44°02' E 008°49'714.9
2017-Nov-19 05:30N 44°09' E 008°53'714.9
2017-Nov-19 05:00N 44°15' E 008°58'713.5
2017-Nov-19 04:30N 44°22' E 008°57'3 5.9
2017-Nov-19 04:00N 44°24' E 008°54'0 0.0
2017-Nov-19 03:30N 44°24' E 008°54'0 0.0
2017-Nov-19 03:00N 44°24' E 008°54'0 0.0
2017-Nov-19 02:30N 44°24' E 008°54'0 0.0
2017-Nov-19 01:57N 44°24' E 008°54'0 0.0
2017-Nov-19 01:30N 44°24' E 008°54'0 0.0
2017-Nov-19 00:54N 44°24' E 008°54'0 0.0
2017-Nov-19 00:27N 44°24' E 008°54'0 0.0
2017-Nov-18 23:57N 44°24' E 008°54'0 0.0
2017-Nov-18 23:27N 44°24' E 008°54'0 0.0
2017-Nov-18 23:00N 44°24' E 008°54'0 0.0
2017-Nov-18 22:27N 44°24' E 008°54'0 0.0
2017-Nov-18 22:00N 44°24' E 008°54'0 0.0
2017-Nov-18 21:27N 44°24' E 008°54'0 0.0
2017-Nov-18 21:00N 44°24' E 008°54'0 0.0
2017-Nov-18 20:30N 44°24' E 008°54'0 0.0
2017-Nov-18 20:00N 44°24' E 008°54'0 0.0
2017-Nov-18 19:30N 44°24' E 008°54'0 0.0
2017-Nov-18 19:00N 44°24' E 008°54'0 0.0
2017-Nov-18 18:30N 44°24' E 008°54'0 0.0
2017-Nov-18 18:00N 44°24' E 008°54'0 0.0
2017-Nov-18 17:30N 44°24' E 008°54'0 0.0
2017-Nov-18 17:00N 44°24' E 008°54'0 0.0
2017-Nov-18 16:30N 44°24' E 008°54'0 0.0
2017-Nov-18 16:00N 44°24' E 008°54'0 0.0
2017-Nov-18 15:30N 44°24' E 008°54'0 0.0
2017-Nov-18 15:00N 44°24' E 008°54'0 0.0
2017-Nov-18 14:30N 44°24' E 008°54'0 0.0
2017-Nov-18 13:59N 44°24' E 008°54'0 0.0
2017-Nov-18 13:29N 44°24' E 008°54'0 0.0
2017-Nov-18 12:59N 44°24' E 008°54'0 0.0
2017-Nov-18 12:29N 44°24' E 008°54'0 0.0
2017-Nov-18 11:59N 44°24' E 008°54'0 0.0
2017-Nov-18 11:29N 44°24' E 008°54'0 0.0
2017-Nov-18 10:59N 44°24' E 008°54'0 0.0
2017-Nov-18 10:29N 44°24' E 008°54'0 0.0
2017-Nov-18 09:59N 44°24' E 008°54'0 0.0
2017-Nov-18 09:20N 44°24' E 008°54'0 0.0
2017-Nov-18 09:00N 44°24' E 008°54'2 3.3
2017-Nov-18 08:30N 44°24' E 008°56'1 2.6
2017-Nov-18 08:00N 44°22' E 008°56'0 0.3
2017-Nov-18 07:30N 44°22' E 008°56'1 1.2
2017-Nov-18 07:00N 44°23' E 008°55'2 4.0
2017-Nov-18 06:26N 44°24' E 008°52'0 0.0
2017-Nov-18 05:56N 44°24' E 008°52'0 0.0
2017-Nov-18 05:29N 44°24' E 008°52'0 0.0
2017-Nov-18 04:59N 44°24' E 008°52'0 0.0
2017-Nov-18 04:29N 44°24' E 008°52'0 0.0
2017-Nov-18 03:55N 44°24' E 008°52'0 0.0
2017-Nov-18 03:25N 44°24' E 008°52'0 0.0
2017-Nov-18 02:58N 44°24' E 008°52'0 0.0
2017-Nov-18 02:28N 44°24' E 008°52'0 0.0
2017-Nov-18 01:58N 44°24' E 008°52'0 0.1
2017-Nov-18 01:28N 44°24' E 008°52'0 0.0
2017-Nov-18 00:58N 44°24' E 008°52'0 0.0
2017-Nov-18 00:28N 44°24' E 008°52'0 0.0
2017-Nov-17 23:58N 44°24' E 008°52'0 0.0
2017-Nov-17 23:28N 44°24' E 008°52'0 0.0
2017-Nov-17 22:58N 44°24' E 008°52'0 0.0
2017-Nov-17 22:28N 44°24' E 008°52'0 0.0
2017-Nov-17 21:58N 44°24' E 008°52'0 0.0
2017-Nov-17 21:28N 44°24' E 008°52'0 0.1
2017-Nov-17 21:00N 44°24' E 008°52'3 5.5
2017-Nov-17 20:30N 44°21' E 008°52'612.2
2017-Nov-17 20:00N 44°15' E 008°53'714.1
2017-Nov-17 19:31N 44°08' E 008°52'714.1
2017-Nov-17 19:01N 44°01' E 008°50'714.7
2017-Nov-17 18:31N 43°54' E 008°46'814.8
2017-Nov-17 17:58N 43°46' E 008°43'715.1
2017-Nov-17 17:31N 43°40' E 008°39'815.1
2017-Nov-17 17:01N 43°33' E 008°35'815.4
2017-Nov-17 16:30N 43°29' E 008°26'2415.2
2017-Nov-17 14:56N 43°19' E 007°56'2314.6
2017-Nov-17 13:21N 43°09' E 007°28'514.3
2017-Nov-17 13:00N 43°06' E 007°21'714.5
2017-Nov-17 12:30N 43°03' E 007°13'814.6
2017-Nov-17 11:56N 42°59' E 007°02'244 6.9
2017-Nov-16 00:50N 41°12' E 002°08'612.0
2017-Nov-16 00:19N 41°09' E 002°01'413.7
2017-Nov-16 00:00N 41°07' E 001°55'713.6
2017-Nov-15 23:30N 41°05' E 001°47'713.4
2017-Nov-15 23:00N 41°03' E 001°38'219 5.3
2017-Nov-14 05:54N 37°45' W 000°21'513.5
2017-Nov-14 05:30N 37°40' W 000°24'713.5
2017-Nov-14 05:00N 37°35' W 000°29'813.4
2017-Nov-14 04:24N 37°29' W 000°36'513.3
2017-Nov-14 04:00N 37°26' W 000°42'713.3
2017-Nov-14 03:30N 37°21' W 000°48'713.3
2017-Nov-14 03:00N 37°17' W 000°54'43711.9
2017-Nov-12 14:15N 38°10' W 010°03'414.6
2017-Nov-12 14:00N 38°14' W 010°04'714.7
2017-Nov-12 13:30N 38°21' W 010°06'814.4
2017-Nov-12 12:57N 38°29' W 010°08'614.0
2017-Nov-12 12:30N 38°35' W 010°10'714.1
2017-Nov-12 12:00N 38°42' W 010°12'713.9
2017-Nov-12 11:30N 38°49' W 010°12'714.3
2017-Nov-12 11:00N 38°56' W 010°12'814.5
2017-Nov-12 10:28N 39°04' W 010°12'59913.9
2017-Nov-10 15:28N 48°35' W 006°02'814.4
2017-Nov-10 14:56N 48°42' W 005°56'714.7
2017-Nov-10 14:29N 48°48' W 005°51'714.4
2017-Nov-10 14:00N 48°54' W 005°46'913.9
2017-Nov-10 13:23N 48°58' W 005°35'613.8
2017-Nov-10 12:58N 49°01' W 005°27'11012.7
2017-Nov-10 04:20N 49°57' W 003°01'514.3
2017-Nov-10 04:00N 49°59' W 002°55'814.2
2017-Nov-10 03:27N 50°02' W 002°43'2812.6
2017-Nov-10 01:13N 50°09' W 002°01'311.1
2017-Nov-10 00:56N 50°10' W 001°56'510.9
2017-Nov-10 00:30N 50°12' W 001°49'610.8
2017-Nov-09 23:59N 50°13' W 001°41'510.7
2017-Nov-09 23:30N 50°14' W 001°33'711.0
2017-Nov-09 22:51N 50°17' W 001°22'3713.5
2017-Nov-09 20:06N 50°27' W 000°26'215.3
2017-Nov-09 19:59N 50°27' W 000°24'715.4
2017-Nov-09 19:30N 50°29' W 000°12'815.5
2017-Nov-09 19:00N 50°32' W 000°01'815.3
2017-Nov-09 18:30N 50°34' E 000°11'815.1
2017-Nov-09 18:00N 50°36' E 000°22'714.8
2017-Nov-09 17:30N 50°38' E 000°33'714.3
2017-Nov-09 17:00N 50°42' E 000°43'713.8
2017-Nov-09 16:30N 50°46' E 000°52'713.2
2017-Nov-09 16:00N 50°50' E 001°00'1012.5
2017-Nov-09 15:13N 50°56' E 001°12'312.1
2017-Nov-09 15:00N 50°58' E 001°15'611.7
2017-Nov-09 14:30N 51°02' E 001°23'612.2
2017-Nov-09 14:00N 51°05' E 001°30'713.3
2017-Nov-09 13:30N 51°09' E 001°38'713.9
2017-Nov-09 13:00N 51°14' E 001°47'815.2
2017-Nov-09 12:30N 51°21' E 001°52'815.8
2017-Nov-09 12:00N 51°28' E 001°58'815.8
2017-Nov-09 11:30N 51°34' E 002°07'  

Dump ship's entire track history